Time;durP1;ratioP1;P1;durP2;ratioP2;P2;SDS_P1;SDS_P2;PMS_P1;PMS_P2;Temp;Humidity;BMP_temperature;BMP_pressure;BME280_temperature;BME280_humidity;BME280_pressure;Samples;Min_cycle;Max_cycle;Signal;HPM_P1;HPM_P2
2022/07/21 00:01:53;;;;;;;;;;;20.70;99.90;;;;;;5005829;28;19960;-87
2022/07/21 00:04:20;;;;;;;;;;;20.70;99.90;;;;;;4995207;28;20517;-88
2022/07/21 00:06:47;;;;;;;;;;;20.80;99.90;;;;;;5002571;28;19977;-92
2022/07/21 00:09:13;;;;;;;;;;;20.80;99.90;;;;;;4996221;28;19929;-89
2022/07/21 00:11:39;;;;;;;;;;;20.80;99.90;;;;;;4993324;28;19921;-86
2022/07/21 00:14:07;;;;;;;;;;;20.80;99.90;;;;;;5010898;28;20742;-87
2022/07/21 00:16:33;;;;;;;;;;;20.80;99.90;;;;;;5011485;28;20228;-86
2022/07/21 00:19:01;;;;;;;;;;;20.80;99.90;;;;;;4994810;28;19929;-88
2022/07/21 00:21:27;;;;;;;;;;;20.80;99.90;;;;;;4997541;28;20272;-88
2022/07/21 00:23:55;;;;;;;;;;;20.80;99.90;;;;;;4992511;28;19925;-85
2022/07/21 00:27:03;;;;;;;;;;;20.80;99.90;;;;;;5021165;28;19933;-85
2022/07/21 00:29:48;;;;;;;;;;;20.80;99.90;;;;;;4997990;28;19929;-86
2022/07/21 00:32:33;;;;;;;;;;;20.90;99.90;;;;;;5008188;28;19936;-91
2022/07/21 00:34:59;;;;;;;;;;;20.90;99.90;;;;;;5011345;28;19921;-88
2022/07/21 00:37:26;;;;;;;;;;;20.90;99.90;;;;;;4971806;28;20466;-85
2022/07/21 00:39:55;;;;;;;;;;;20.90;99.90;;;;;;4993156;28;19971;-83
2022/07/21 00:42:25;;;;;;;;;;;20.90;99.90;;;;;;4993570;28;19925;-84
2022/07/21 00:44:53;;;;;;;;;;;20.90;99.90;;;;;;4984729;28;19921;-86
2022/07/21 00:57:29;;;;;;;;;;;20.90;99.90;;;;;;5028787;28;19921;-85
2022/07/21 00:59:56;;;;;;;;;;;20.90;99.90;;;;;;5014092;28;20022;-81
2022/07/21 01:02:23;;;;;;;;;;;20.90;99.90;;;;;;4996874;28;20024;-80
2022/07/21 01:04:49;;;;;;;;;;;20.90;99.90;;;;;;4991309;28;20419;-84
2022/07/21 01:07:15;;;;;;;;;;;20.80;99.90;;;;;;5009017;28;19932;-83
2022/07/21 01:13:13;;;;;;;;;;;20.60;99.90;;;;;;5032850;28;20019;-87
2022/07/21 01:15:41;;;;;;;;;;;20.50;99.90;;;;;;5031961;28;19925;-85
2022/07/21 01:23:31;;;;;;;;;;;20.30;99.90;;;;;;5065247;28;19960;-87
2022/07/21 01:25:58;;;;;;;;;;;20.20;99.90;;;;;;5021620;28;19971;-86
2022/07/21 01:28:24;;;;;;;;;;;20.20;99.90;;;;;;5052537;28;20397;-85
2022/07/21 01:30:51;;;;;;;;;;;20.10;99.90;;;;;;5015792;28;19928;-86
2022/07/21 01:33:17;;;;;;;;;;;20.10;99.90;;;;;;5011929;28;20343;-86
2022/07/21 01:35:44;;;;;;;;;;;20.10;99.90;;;;;;5034804;28;20375;-85
2022/07/21 01:43:44;;;;;;;;;;;20.00;99.90;;;;;;5062730;28;20006;-82
2022/07/21 01:46:11;;;;;;;;;;;19.90;99.90;;;;;;5054778;28;20409;-88
2022/07/21 01:48:43;;;;;;;;;;;19.90;99.90;;;;;;5052864;28;20027;-83
2022/07/21 01:51:09;;;;;;;;;;;20.00;99.90;;;;;;5052228;28;19929;-87
2022/07/21 01:53:35;;;;;;;;;;;19.90;99.90;;;;;;5044675;28;19925;-83
2022/07/21 01:56:00;;;;;;;;;;;19.90;99.90;;;;;;5074035;28;19952;-88
2022/07/21 01:58:29;;;;;;;;;;;19.90;99.90;;;;;;5019484;28;19932;-86
2022/07/21 02:00:55;;;;;;;;;;;19.90;99.90;;;;;;5036153;28;20004;-85
2022/07/21 02:03:20;;;;;;;;;;;19.80;99.90;;;;;;5035862;28;20296;-83
2022/07/21 02:51:16;;;;;;;;;;;19.60;99.90;;;;;;2323022;22;19938;31
2022/07/21 02:53:44;;;;;;;;;;;19.50;99.90;;;;;;4954505;28;19930;-85
2022/07/21 02:56:10;;;;;;;;;;;19.50;99.90;;;;;;4944624;28;20315;-87
2022/07/21 02:58:36;;;;;;;;;;;19.50;99.90;;;;;;5037478;23;19930;-85
2022/07/21 03:01:05;;;;;;;;;;;19.50;99.90;;;;;;4932662;28;19930;-90
2022/07/21 03:03:32;;;;;;;;;;;19.50;99.90;;;;;;4988569;28;19965;-84
2022/07/21 03:05:58;;;;;;;;;;;19.50;99.90;;;;;;4971084;28;19925;-86
2022/07/21 03:08:34;;;;;;;;;;;19.40;99.90;;;;;;4978226;28;19925;-82
2022/07/21 03:10:59;;;;;;;;;;;19.30;99.90;;;;;;4955359;28;20013;-89
2022/07/21 03:13:30;;;;;;;;;;;19.30;99.90;;;;;;4957952;28;19965;-88
2022/07/21 03:16:05;;;;;;;;;;;19.30;99.90;;;;;;4985381;28;19932;-89
2022/07/21 03:18:49;;;;;;;;;;;19.20;99.90;;;;;;4986880;28;20195;-87
2022/07/21 03:21:15;;;;;;;;;;;19.50;99.90;;;;;;4949434;28;20114;-88
2022/07/21 03:23:45;;;;;;;;;;;19.30;99.90;;;;;;4918176;28;19940;-88
2022/07/21 03:26:11;;;;;;;;;;;;;;;;;;4931532;28;19926;-88
2022/07/21 03:28:37;;;;;;;;;;;19.70;99.90;;;;;;4930015;28;19938;-88
2022/07/21 03:31:02;;;;;;;;;;;19.40;99.90;;;;;;4944476;28;19949;-85
2022/07/21 03:33:28;;;;;;;;;;;19.30;99.90;;;;;;4931904;28;19926;-87
2022/07/21 03:35:54;;;;;;;;;;;19.30;99.90;;;;;;4930556;28;19981;-89
2022/07/21 03:38:20;;;;;;;;;;;19.40;99.90;;;;;;4932744;28;20021;-89
2022/07/21 03:40:45;;;;;;;;;;;19.40;99.90;;;;;;4938777;28;19992;-92
2022/07/21 03:43:23;;;;;;;;;;;19.20;99.90;;;;;;4950599;28;20633;-91
2022/07/21 03:45:50;;;;;;;;;;;20.40;99.90;;;;;;4956487;28;19930;-90
2022/07/21 03:51:01;;;;;;;;;;;19.40;99.90;;;;;;4958081;28;19934;-88
2022/07/21 03:53:28;;;;;;;;;;;19.40;99.90;;;;;;4969958;28;19949;-89
2022/07/21 03:55:54;;;;;;;;;;;19.40;99.90;;;;;;4954607;28;20378;-89
2022/07/21 03:58:19;;;;;;;;;;;19.50;99.90;;;;;;4957774;28;19926;-87
2022/07/21 04:00:48;;;;;;;;;;;19.40;99.90;;;;;;4986880;28;20543;-86
2022/07/21 04:03:13;;;;;;;;;;;19.40;99.90;;;;;;4956263;28;19925;-86
2022/07/21 04:05:40;;;;;;;;;;;19.40;99.90;;;;;;4945434;28;20514;-84
2022/07/21 04:08:06;;;;;;;;;;;19.40;99.90;;;;;;4971578;28;20437;-88
2022/07/21 04:10:32;;;;;;;;;;;19.40;99.90;;;;;;4951967;28;20032;-87
2022/07/21 04:12:59;;;;;;;;;;;19.40;99.90;;;;;;4973216;28;20296;-85
2022/07/21 04:15:25;;;;;;;;;;;19.30;99.90;;;;;;4986438;28;19925;-84
2022/07/21 04:17:51;;;;;;;;;;;19.40;99.90;;;;;;4950202;28;20510;-86
2022/07/21 04:20:18;;;;;;;;;;;19.40;99.90;;;;;;4971218;28;19961;-83
2022/07/21 04:22:45;;;;;;;;;;;19.30;99.90;;;;;;4987081;28;20025;-86
2022/07/21 04:25:11;;;;;;;;;;;19.30;99.90;;;;;;4986510;28;19921;-85
2022/07/21 04:27:37;;;;;;;;;;;19.30;99.90;;;;;;4970357;28;20009;-85
2022/07/21 04:30:04;;;;;;;;;;;19.30;99.90;;;;;;4981104;28;19932;-85
2022/07/21 04:32:30;;;;;;;;;;;19.30;99.90;;;;;;4972154;28;19961;-84
2022/07/21 04:34:56;;;;;;;;;;;19.30;99.90;;;;;;4957915;28;19933;-89
2022/07/21 04:37:22;;;;;;;;;;;19.30;99.90;;;;;;4988740;28;20018;-84
2022/07/21 04:39:48;;;;;;;;;;;19.30;99.90;;;;;;4958667;28;20120;-84
2022/07/21 04:42:15;;;;;;;;;;;19.30;99.90;;;;;;4974440;28;19980;-83
2022/07/21 04:44:41;;;;;;;;;;;19.20;99.90;;;;;;4973220;28;19953;-85
2022/07/21 04:47:07;;;;;;;;;;;19.30;99.90;;;;;;4989023;28;20368;-84
2022/07/21 04:49:32;;;;;;;;;;;19.20;99.90;;;;;;4989611;28;19926;-81
2022/07/21 04:51:58;;;;;;;;;;;19.20;99.90;;;;;;4970745;28;20003;-84
2022/07/21 04:54:25;;;;;;;;;;;19.30;99.90;;;;;;4970921;28;19930;-87
2022/07/21 04:56:51;;;;;;;;;;;19.30;99.90;;;;;;4974128;28;20016;-84
2022/07/21 04:59:17;;;;;;;;;;;19.30;99.90;;;;;;4954702;28;19980;-86
2022/07/21 05:01:42;;;;;;;;;;;19.30;99.90;;;;;;4968512;28;19965;-84
2022/07/21 05:04:08;;;;;;;;;;;19.30;99.90;;;;;;4987567;28;19930;-83
2022/07/21 05:06:34;;;;;;;;;;;19.30;99.90;;;;;;4972875;28;20490;-85
2022/07/21 05:09:01;;;;;;;;;;;19.30;99.90;;;;;;4985493;28;19929;-85
2022/07/21 05:11:26;;;;;;;;;;;19.40;99.90;;;;;;4986904;28;20598;-85
2022/07/21 05:13:52;;;;;;;;;;;19.40;99.90;;;;;;4971776;28;19957;-83
2022/07/21 05:16:18;;;;;;;;;;;19.50;99.90;;;;;;4968237;28;20000;-85
2022/07/21 05:18:44;;;;;;;;;;;19.50;99.90;;;;;;4964072;28;19936;-86
2022/07/21 05:21:10;;;;;;;;;;;19.60;99.90;;;;;;4970238;28;19926;-86
2022/07/21 05:23:36;;;;;;;;;;;19.60;99.90;;;;;;4969369;28;19988;-84
2022/07/21 05:26:02;;;;;;;;;;;19.70;99.90;;;;;;4967566;28;19934;-82
2022/07/21 05:28:28;;;;;;;;;;;19.70;99.90;;;;;;4989629;28;19936;-81
2022/07/21 05:30:54;;;;;;;;;;;19.70;99.90;;;;;;4981143;28;19929;-82
2022/07/21 05:33:20;;;;;;;;;;;19.70;99.90;;;;;;4988569;28;20288;-86
2022/07/21 05:35:45;;;;;;;;;;;19.80;99.90;;;;;;4967722;28;19976;-82
2022/07/21 05:38:11;;;;;;;;;;;19.80;99.90;;;;;;4971706;28;20072;-82
2022/07/21 05:40:37;;;;;;;;;;;20.40;99.90;;;;;;4967896;28;19930;-84
2022/07/21 05:43:03;;;;;;;;;;;;;;;;;;4966870;28;19926;-82
2022/07/21 05:45:29;;;;;;;;;;;20.30;99.90;;;;;;4970380;28;19921;-84
2022/07/21 05:47:54;;;;;;;;;;;20.00;99.90;;;;;;4967790;28;20312;-83
2022/07/21 05:50:20;;;;;;;;;;;20.00;99.90;;;;;;4983007;28;20106;-82
2022/07/21 05:52:46;;;;;;;;;;;20.00;99.90;;;;;;4990019;28;19940;-84
2022/07/21 05:55:12;;;;;;;;;;;20.00;99.90;;;;;;4970312;28;19945;-84
2022/07/21 05:57:39;;;;;;;;;;;20.00;99.90;;;;;;4986617;28;19926;-84
2022/07/21 06:00:05;;;;;;;;;;;20.10;99.90;;;;;;4967625;28;19933;-85
2022/07/21 06:02:32;;;;;;;;;;;20.10;99.90;;;;;;4985781;28;19926;-82
2022/07/21 06:04:59;;;;;;;;;;;20.10;99.90;;;;;;4969485;28;19941;-82
2022/07/21 06:07:25;;;;;;;;;;;20.00;99.90;;;;;;4986738;28;20435;-85
2022/07/21 06:09:51;;;;;;;;;;;20.00;99.90;;;;;;4987445;28;19926;-78
2022/07/21 06:12:18;;;;;;;;;;;20.00;99.90;;;;;;4987480;28;19995;-83
2022/07/21 06:14:44;;;;;;;;;;;19.90;99.90;;;;;;4979486;28;19925;-84
2022/07/21 06:17:09;;;;;;;;;;;20.00;99.90;;;;;;4983248;28;19926;-81
2022/07/21 06:19:35;;;;;;;;;;;19.90;99.90;;;;;;4976000;28;20038;-80
2022/07/21 06:22:04;;;;;;;;;;;19.90;99.90;;;;;;4978247;28;20412;-83
2022/07/21 06:24:30;;;;;;;;;;;19.90;99.90;;;;;;4975588;28;19941;-84
2022/07/21 06:26:56;;;;;;;;;;;19.90;99.90;;;;;;4980061;28;19933;-87
2022/07/21 06:29:22;;;;;;;;;;;20.00;99.90;;;;;;4984613;28;19930;-83
2022/07/21 06:31:49;;;;;;;;;;;20.10;99.90;;;;;;4975551;28;20016;-85
2022/07/21 06:34:15;;;;;;;;;;;20.20;99.90;;;;;;4973952;28;20440;-80
2022/07/21 06:36:41;;;;;;;;;;;20.30;99.90;;;;;;4979484;28;20415;-83
2022/07/21 06:39:07;;;;;;;;;;;20.30;99.90;;;;;;4989330;28;19929;-84
2022/07/21 06:41:33;;;;;;;;;;;20.30;99.90;;;;;;4945332;28;20104;-84
2022/07/21 06:43:59;;;;;;;;;;;20.20;99.90;;;;;;4970015;28;19930;-81
2022/07/21 06:46:25;;;;;;;;;;;20.20;99.90;;;;;;4959982;28;20017;-80
2022/07/21 06:48:50;;;;;;;;;;;20.20;99.90;;;;;;4954466;28;20058;-82
2022/07/21 06:51:17;;;;;;;;;;;20.20;99.90;;;;;;4968177;28;20031;-84
2022/07/21 06:53:42;;;;;;;;;;;20.20;99.90;;;;;;4977812;28;19959;-82
2022/07/21 06:56:09;;;;;;;;;;;20.30;99.90;;;;;;4955422;28;19941;-81
2022/07/21 06:58:35;;;;;;;;;;;20.30;99.90;;;;;;4970220;28;20021;-82
2022/07/21 07:01:01;;;;;;;;;;;20.30;99.90;;;;;;4968220;28;19930;-82
2022/07/21 07:03:27;;;;;;;;;;;20.20;99.90;;;;;;4972696;28;19965;-81
2022/07/21 07:05:52;;;;;;;;;;;20.20;99.90;;;;;;4968382;28;19949;-81
2022/07/21 07:08:18;;;;;;;;;;;20.20;99.90;;;;;;4968771;28;19973;-80
2022/07/21 07:10:46;;;;;;;;;;;20.10;99.90;;;;;;4972956;28;19966;-83
2022/07/21 07:13:13;;;;;;;;;;;20.20;99.90;;;;;;4955104;28;20614;-86
2022/07/21 07:15:39;;;;;;;;;;;20.10;99.90;;;;;;4973093;28;19976;-83
2022/07/21 07:18:05;;;;;;;;;;;20.10;99.90;;;;;;4973736;28;20320;-85
2022/07/21 07:20:31;;;;;;;;;;;20.10;99.90;;;;;;4986856;28;20017;-81
2022/07/21 07:22:56;;;;;;;;;;;20.10;99.90;;;;;;4972304;28;19936;-83
2022/07/21 07:25:22;;;;;;;;;;;20.10;99.90;;;;;;4957665;28;20024;-83
2022/07/21 07:27:49;;;;;;;;;;;20.10;99.90;;;;;;4977720;28;19930;-82
2022/07/21 07:30:15;;;;;;;;;;;20.10;99.90;;;;;;4975761;28;19930;-82
2022/07/21 07:32:41;;;;;;;;;;;20.10;99.90;;;;;;4985916;28;19936;-84
2022/07/21 07:35:08;;;;;;;;;;;20.00;99.90;;;;;;4984399;28;19972;-82
2022/07/21 07:37:35;;;;;;;;;;;20.00;99.90;;;;;;4984831;28;20093;-85
2022/07/21 07:40:02;;;;;;;;;;;20.00;99.90;;;;;;4969877;28;19948;-82
2022/07/21 07:42:28;;;;;;;;;;;19.90;99.90;;;;;;4985587;28;19961;-81
2022/07/21 07:44:54;;;;;;;;;;;19.90;99.90;;;;;;4984629;28;20377;-83
2022/07/21 07:47:20;;;;;;;;;;;19.90;99.90;;;;;;4985711;28;19972;-81
2022/07/21 07:49:49;;;;;;;;;;;19.90;99.90;;;;;;4973260;28;19948;-82
2022/07/21 07:52:15;;;;;;;;;;;19.90;99.90;;;;;;4986161;28;20029;-82
2022/07/21 07:54:40;;;;;;;;;;;20.00;99.90;;;;;;4981244;28;19976;-80
2022/07/21 07:57:06;;;;;;;;;;;19.90;99.90;;;;;;4966710;28;19999;-79
2022/07/21 07:59:32;;;;;;;;;;;19.90;99.90;;;;;;4984273;28;19973;-82
2022/07/21 08:01:57;;;;;;;;;;;19.80;99.90;;;;;;4951599;28;19937;-79
2022/07/21 08:04:23;;;;;;;;;;;19.80;99.90;;;;;;4983335;28;19925;-81
2022/07/21 08:06:49;;;;;;;;;;;19.80;99.90;;;;;;4943659;28;20528;-82
2022/07/21 08:09:15;;;;;;;;;;;19.80;99.90;;;;;;4969629;28;19937;-79
2022/07/21 08:11:41;;;;;;;;;;;19.80;99.90;;;;;;4986980;28;19938;-82
2022/07/21 08:14:06;;;;;;;;;;;19.80;99.90;;;;;;4987898;28;20028;-81
2022/07/21 08:16:34;;;;;;;;;;;19.80;99.90;;;;;;4988216;28;19964;-80
2022/07/21 08:18:59;;;;;;;;;;;19.80;99.90;;;;;;4988577;28;19933;-81
2022/07/21 08:21:30;;;;;;;;;;;19.80;99.90;;;;;;4989405;28;19925;-80
2022/07/21 08:23:57;;;;;;;;;;;19.90;99.90;;;;;;4974382;28;20012;-81
2022/07/21 08:26:24;;;;;;;;;;;19.90;99.90;;;;;;4987658;28;19952;-86
2022/07/21 08:28:51;;;;;;;;;;;19.90;99.90;;;;;;4969401;28;19926;-84
2022/07/21 08:31:18;;;;;;;;;;;19.90;99.90;;;;;;4989450;28;19934;-84
2022/07/21 08:33:43;;;;;;;;;;;19.90;99.90;;;;;;4987493;28;20057;-82
2022/07/21 08:36:09;;;;;;;;;;;19.80;99.90;;;;;;4990631;28;20377;-82
2022/07/21 08:38:35;;;;;;;;;;;19.80;99.90;;;;;;4986861;28;19992;-81
2022/07/21 08:41:01;;;;;;;;;;;19.90;99.90;;;;;;4988459;28;20384;-86
2022/07/21 08:43:27;;;;;;;;;;;19.90;99.90;;;;;;4988474;28;20278;-83
2022/07/21 08:45:53;;;;;;;;;;;20.00;99.90;;;;;;4989542;28;19937;-82
2022/07/21 08:48:23;;;;;;;;;;;20.00;99.90;;;;;;4973255;28;19934;-87
2022/07/21 08:50:50;;;;;;;;;;;20.10;99.90;;;;;;4989386;28;20436;-86
2022/07/21 08:53:17;;;;;;;;;;;20.20;99.90;;;;;;4981823;28;19922;-85
2022/07/21 08:56:01;;;;;;;;;;;20.20;99.90;;;;;;4988853;28;19945;-83
2022/07/21 08:58:27;;;;;;;;;;;20.30;99.90;;;;;;4987145;28;19965;-83
2022/07/21 09:00:54;;;;;;;;;;;20.30;99.90;;;;;;5005185;28;19988;-82
2022/07/21 09:03:22;;;;;;;;;;;20.30;99.90;;;;;;5004365;28;19940;-82
2022/07/21 09:06:00;;;;;;;;;;;20.30;99.90;;;;;;4990797;28;20069;-84
2022/07/21 09:08:30;;;;;;;;;;;20.40;99.90;;;;;;4997384;28;20032;-82
2022/07/21 09:11:07;;;;;;;;;;;20.40;99.90;;;;;;4982905;28;20328;-86
2022/07/21 09:13:33;;;;;;;;;;;20.40;99.90;;;;;;4982722;28;19937;-86
2022/07/21 09:15:59;;;;;;;;;;;;;;;;;;4961167;28;20597;-90
2022/07/21 09:18:32;;;;;;;;;;;20.50;99.90;;;;;;4988071;28;19948;-88
2022/07/21 09:21:01;;;;;;;;;;;;;;;;;;4986424;28;19925;-83
2022/07/21 09:23:28;;;;;;;;;;;20.60;99.90;;;;;;4985623;28;19929;-83
2022/07/21 09:25:55;;;;;;;;;;;20.70;99.90;;;;;;4991743;28;19929;-88
2022/07/21 09:28:29;;;;;;;;;;;20.80;99.90;;;;;;4992325;28;19929;-87
2022/07/21 09:30:57;;;;;;;;;;;20.90;99.90;;;;;;4988384;28;20423;-81
2022/07/21 09:33:28;;;;;;;;;;;20.90;99.90;;;;;;4974161;28;19983;-82
2022/07/21 09:35:53;;;;;;;;;;;21.00;99.90;;;;;;4969885;28;19926;-79
2022/07/21 09:38:19;;;;;;;;;;;21.10;99.90;;;;;;4989962;28;19933;-80
2022/07/21 09:40:49;;;;;;;;;;;21.30;99.90;;;;;;4973277;28;19951;-79
2022/07/21 09:43:28;;;;;;;;;;;21.40;99.90;;;;;;4958030;28;19929;-80
2022/07/21 09:45:55;;;;;;;;;;;21.50;99.90;;;;;;4987567;28;19936;-82
2022/07/21 09:48:34;;;;;;;;;;;21.40;99.90;;;;;;4989691;28;19944;-82
2022/07/21 09:51:19;;;;;;;;;;;21.50;99.90;;;;;;4991817;28;19984;-80
2022/07/21 09:54:11;;;;;;;;;;;21.60;99.90;;;;;;4990694;28;19925;-81
2022/07/21 09:56:38;;;;;;;;;;;21.70;99.90;;;;;;4986742;28;20411;-81
2022/07/21 09:59:05;;;;;;;;;;;21.70;99.90;;;;;;4974380;28;19925;-82
2022/07/21 10:01:31;;;;;;;;;;;21.60;99.90;;;;;;4971284;28;20431;-81
2022/07/21 10:03:58;;;;;;;;;;;21.70;99.90;;;;;;4974034;28;19965;-80
2022/07/21 10:06:25;;;;;;;;;;;21.70;99.90;;;;;;4990196;28;19933;-82
2022/07/21 10:08:52;;;;;;;;;;;21.80;99.90;;;;;;4989518;28;19937;-82
2022/07/21 10:11:18;;;;;;;;;;;21.80;99.90;;;;;;4973606;28;19933;-81
2022/07/21 10:13:44;;;;;;;;;;;21.90;99.90;;;;;;4955367;28;19932;-82
2022/07/21 10:16:11;;;;;;;;;;;21.90;99.90;;;;;;4987829;28;20340;-81
2022/07/21 10:18:57;;;;;;;;;;;21.90;99.90;;;;;;4997311;28;19933;-85
2022/07/21 10:21:29;;;;;;;;;;;21.90;99.90;;;;;;4988557;28;19933;-81
2022/07/21 10:27:14;;;;;;;;;;;22.00;99.90;;;;;;4988311;28;20012;-83
2022/07/21 10:29:52;;;;;;;;;;;22.10;99.90;;;;;;4955708;28;19937;-83
2022/07/21 10:32:22;;;;;;;;;;;22.20;99.90;;;;;;5044282;23;20535;-83
2022/07/21 10:35:10;;;;;;;;;;;22.30;99.90;;;;;;5044368;23;19925;-82
2022/07/21 10:37:39;;;;;;;;;;;22.30;99.90;;;;;;5002494;28;19938;-79
2022/07/21 10:40:21;;;;;;;;;;;22.30;99.90;;;;;;4989784;28;20386;-82
2022/07/21 10:43:00;;;;;;;;;;;22.60;99.90;;;;;;4992425;28;19937;-84
2022/07/21 10:45:33;;;;;;;;;;;22.90;99.90;;;;;;4990109;28;19953;-80
2022/07/21 10:48:00;;;;;;;;;;;23.10;99.90;;;;;;4986918;28;19934;-80
2022/07/21 10:50:36;;;;;;;;;;;23.30;99.90;;;;;;4955766;28;19976;-79
2022/07/21 10:53:34;;;;;;;;;;;;;;;;;;;;;
2022/07/21 10:56:43;;;;;;;;;;;23.20;99.90;;;;;;4987544;28;20003;-80
2022/07/21 10:59:09;;;;;;;;;;;23.10;99.90;;;;;;4984931;28;19992;-79
2022/07/21 11:01:36;;;;;;;;;;;22.90;99.90;;;;;;4953985;28;20504;-80
2022/07/21 11:04:08;;;;;;;;;;;22.80;99.90;;;;;;4972552;28;19932;-80
2022/07/21 11:06:34;;;;;;;;;;;22.70;99.90;;;;;;4989282;28;19960;-79
2022/07/21 11:09:03;;;;;;;;;;;22.70;99.90;;;;;;4972411;28;19926;-79
2022/07/21 11:11:30;;;;;;;;;;;22.60;99.90;;;;;;4972196;28;19933;-80
2022/07/21 11:13:59;;;;;;;;;;;22.60;99.90;;;;;;4986754;28;20032;-79
2022/07/21 11:16:40;;;;;;;;;;;22.60;99.90;;;;;;4986756;28;20015;-80
2022/07/21 11:19:26;;;;;;;;;;;22.80;99.90;;;;;;4986936;28;19936;-80
2022/07/21 11:21:52;;;;;;;;;;;23.20;99.90;;;;;;4972733;28;19929;-78
2022/07/21 11:24:18;;;;;;;;;;;23.60;99.90;;;;;;4972497;28;19979;-81
2022/07/21 11:26:44;;;;;;;;;;;23.70;99.90;;;;;;4982775;28;19933;-81
2022/07/21 11:29:10;;;;;;;;;;;23.90;99.90;;;;;;4969837;28;20016;-80
2022/07/21 11:31:45;;;;;;;;;;;24.10;99.90;;;;;;4968679;28;19936;-80
2022/07/21 11:34:12;;;;;;;;;;;24.20;99.90;;;;;;4988605;28;19936;-80
2022/07/21 11:36:38;;;;;;;;;;;24.40;99.90;;;;;;4972719;28;19929;-79
2022/07/21 11:39:05;;;;;;;;;;;24.40;99.90;;;;;;4972067;28;19980;-79
2022/07/21 11:41:32;;;;;;;;;;;24.40;99.90;;;;;;4985963;28;19934;-82
2022/07/21 11:43:58;;;;;;;;;;;24.50;99.90;;;;;;4970688;28;19929;-80
2022/07/21 11:46:23;;;;;;;;;;;24.50;99.90;;;;;;4951927;28;19933;-80
2022/07/21 11:49:00;;;;;;;;;;;24.50;99.90;;;;;;4988131;28;19925;-82
2022/07/21 11:51:26;;;;;;;;;;;24.60;99.90;;;;;;4972164;28;19933;-81
2022/07/21 11:53:52;;;;;;;;;;;24.50;99.90;;;;;;4956617;28;19936;-80
2022/07/21 11:56:17;;;;;;;;;;;24.50;99.90;;;;;;4972398;28;20596;-80
2022/07/21 11:58:43;;;;;;;;;;;24.40;99.90;;;;;;4954901;28;19930;-79
2022/07/21 12:01:10;;;;;;;;;;;24.30;99.90;;;;;;4970868;28;20016;-80
2022/07/21 12:03:49;;;;;;;;;;;24.30;99.90;;;;;;4972016;28;20581;-81
2022/07/21 12:06:15;;;;;;;;;;;24.30;99.90;;;;;;4972901;28;19929;-83
2022/07/21 12:08:42;;;;;;;;;;;24.10;99.90;;;;;;4954939;28;19934;-83
2022/07/21 12:11:08;;;;;;;;;;;24.00;99.90;;;;;;4972130;28;20020;-80
2022/07/21 12:13:53;;;;;;;;;;;24.00;99.90;;;;;;4971477;28;20320;-80
2022/07/21 12:16:19;;;;;;;;;;;23.80;99.90;;;;;;4969718;28;19929;-81
2022/07/21 12:18:44;;;;;;;;;;;23.60;99.90;;;;;;4969469;28;19930;-79
2022/07/21 12:21:10;;;;;;;;;;;23.50;99.90;;;;;;4987930;28;19925;-81
2022/07/21 12:23:36;;;;;;;;;;;23.40;99.90;;;;;;4956337;28;19929;-80
2022/07/21 12:26:02;;;;;;;;;;;23.30;99.90;;;;;;4988026;28;20308;-79
2022/07/21 12:28:41;;;;;;;;;;;23.20;99.90;;;;;;4987925;28;20648;-83
2022/07/21 12:31:14;;;;;;;;;;;23.10;99.90;;;;;;4986710;28;19937;-81
2022/07/21 12:33:40;;;;;;;;;;;22.90;99.90;;;;;;4971299;28;20428;-82
2022/07/21 12:36:07;;;;;;;;;;;22.70;99.90;;;;;;4985487;28;20455;-81
2022/07/21 12:38:50;;;;;;;;;;;22.70;99.90;;;;;;4971103;28;20076;-82
2022/07/21 12:41:18;;;;;;;;;;;22.60;99.90;;;;;;4985823;28;20284;-81
2022/07/21 12:43:53;;;;;;;;;;;22.60;99.90;;;;;;4987139;28;20450;-82
2022/07/21 12:46:19;;;;;;;;;;;22.60;99.90;;;;;;4969641;28;19933;-83
2022/07/21 12:48:45;;;;;;;;;;;22.60;99.90;;;;;;4988014;28;19937;-80
2022/07/21 12:51:23;;;;;;;;;;;22.50;99.90;;;;;;4972020;28;20410;-83
2022/07/21 12:53:53;;;;;;;;;;;22.60;99.90;;;;;;4959079;28;20368;-84
2022/07/21 12:56:20;;;;;;;;;;;22.50;99.90;;;;;;4991804;28;20064;-81
2022/07/21 12:58:47;;;;;;;;;;;22.50;99.90;;;;;;4974567;28;19941;-81
2022/07/21 13:01:14;;;;;;;;;;;22.60;99.90;;;;;;4989876;28;19960;-80
2022/07/21 13:03:39;;;;;;;;;;;22.60;99.90;;;;;;4991709;28;20099;-81
2022/07/21 13:06:06;;;;;;;;;;;22.60;99.90;;;;;;4975145;28;20493;-79
2022/07/21 13:08:33;;;;;;;;;;;22.70;99.90;;;;;;4990904;28;20103;-81
2022/07/21 13:10:58;;;;;;;;;;;22.70;99.90;;;;;;4974950;28;19925;-82
2022/07/21 13:13:25;;;;;;;;;;;22.80;99.90;;;;;;4974446;28;19921;-80
2022/07/21 13:15:51;;;;;;;;;;;22.80;99.90;;;;;;4987930;28;20442;-81
2022/07/21 13:18:17;;;;;;;;;;;22.90;99.90;;;;;;4987886;28;19979;-80
2022/07/21 13:20:43;;;;;;;;;;;22.90;99.90;;;;;;4991456;28;20016;-82
2022/07/21 13:23:09;;;;;;;;;;;23.00;99.90;;;;;;4973083;28;19949;-81
2022/07/21 13:25:36;;;;;;;;;;;23.00;99.90;;;;;;4975197;28;19929;-82
2022/07/21 13:28:02;;;;;;;;;;;22.90;99.90;;;;;;4957989;28;19988;-79
2022/07/21 13:30:28;;;;;;;;;;;22.90;99.90;;;;;;4971329;28;20366;-83
2022/07/21 13:32:55;;;;;;;;;;;22.90;99.90;;;;;;4975005;28;19937;-85
2022/07/21 13:35:21;;;;;;;;;;;22.90;99.90;;;;;;4991445;28;19929;-78
2022/07/21 13:37:47;;;;;;;;;;;22.90;99.90;;;;;;4978034;28;19937;-81
2022/07/21 13:40:13;;;;;;;;;;;22.90;99.90;;;;;;4974738;28;19926;-81
2022/07/21 13:42:39;;;;;;;;;;;22.90;99.90;;;;;;4957636;28;19926;-83
2022/07/21 13:45:07;;;;;;;;;;;22.90;99.90;;;;;;4988338;28;20430;-79
2022/07/21 13:47:33;;;;;;;;;;;22.80;99.90;;;;;;4958192;28;20273;-83
2022/07/21 13:49:59;;;;;;;;;;;22.80;99.90;;;;;;4989629;28;19973;-77
2022/07/21 13:52:25;;;;;;;;;;;22.80;99.90;;;;;;4975111;28;19929;-79
2022/07/21 13:54:51;;;;;;;;;;;22.70;99.90;;;;;;4973805;28;19926;-79
2022/07/21 13:57:17;;;;;;;;;;;22.70;99.90;;;;;;4975041;28;19940;-78
2022/07/21 13:59:43;;;;;;;;;;;22.70;99.90;;;;;;4972960;28;20315;-79
2022/07/21 14:02:09;;;;;;;;;;;22.70;99.90;;;;;;4972333;28;20446;-80
2022/07/21 14:04:35;;;;;;;;;;;22.70;99.90;;;;;;4973294;28;19936;-78
2022/07/21 14:07:01;;;;;;;;;;;22.60;99.90;;;;;;4990463;28;19926;-79
2022/07/21 14:09:27;;;;;;;;;;;22.60;99.90;;;;;;4989961;28;20510;-77
2022/07/21 14:11:53;;;;;;;;;;;22.60;99.90;;;;;;4988269;28;19991;-76
2022/07/21 14:14:22;;;;;;;;;;;22.70;99.90;;;;;;4973252;28;20000;-79
2022/07/21 14:16:48;;;;;;;;;;;22.60;99.90;;;;;;4985843;28;19935;-79
2022/07/21 14:19:15;;;;;;;;;;;22.50;99.90;;;;;;4990380;28;19929;-78
2022/07/21 14:21:41;;;;;;;;;;;22.50;99.90;;;;;;4989998;28;19925;-78
2022/07/21 14:26:51;;;;;;;;;;;22.60;99.90;;;;;;4988987;28;20020;-78
2022/07/21 14:29:17;;;;;;;;;;;22.60;99.90;;;;;;4986248;28;20023;-79
2022/07/21 14:31:43;;;;;;;;;;;22.50;99.90;;;;;;4969530;28;19926;-80
2022/07/21 14:34:08;;;;;;;;;;;22.40;99.90;;;;;;4972517;28;20693;-79
2022/07/21 14:36:34;;;;;;;;;;;22.40;99.90;;;;;;4989347;28;19975;-78
2022/07/21 14:39:00;;;;;;;;;;;22.30;99.90;;;;;;4971249;28;20464;-79
2022/07/21 14:41:26;;;;;;;;;;;22.30;99.90;;;;;;4989429;28;19961;-78
2022/07/21 14:43:51;;;;;;;;;;;22.30;99.90;;;;;;4986257;28;19983;-78
2022/07/21 14:46:17;;;;;;;;;;;22.30;99.90;;;;;;4969813;28;20021;-78
2022/07/21 14:48:43;;;;;;;;;;;22.20;99.90;;;;;;4972183;28;19944;-78
2022/07/21 14:51:09;;;;;;;;;;;22.10;99.90;;;;;;4986039;28;20396;-78
2022/07/21 14:53:35;;;;;;;;;;;22.10;99.90;;;;;;4955876;28;20380;-77
2022/07/21 14:56:01;;;;;;;;;;;22.10;99.90;;;;;;4987052;28;20423;-79
2022/07/21 14:58:26;;;;;;;;;;;22.10;99.90;;;;;;4987050;28;20043;-77
2022/07/21 15:00:52;;;;;;;;;;;22.00;99.90;;;;;;4969245;28;20024;-79
2022/07/21 15:03:18;;;;;;;;;;;22.10;99.90;;;;;;4956473;28;19937;-78
2022/07/21 15:05:44;;;;;;;;;;;22.10;99.90;;;;;;4951951;28;19988;-80
2022/07/21 15:08:11;;;;;;;;;;;22.10;99.90;;;;;;4988641;28;19969;-81
2022/07/21 15:10:38;;;;;;;;;;;22.00;99.90;;;;;;4970395;28;19930;-78
2022/07/21 15:13:03;;;;;;;;;;;21.90;99.90;;;;;;4972906;28;19925;-76
2022/07/21 15:15:29;;;;;;;;;;;21.80;99.90;;;;;;4969533;28;20333;-79
2022/07/21 15:17:55;;;;;;;;;;;21.50;99.90;;;;;;4986265;28;19936;-81
2022/07/21 15:20:21;;;;;;;;;;;21.50;99.90;;;;;;4956938;28;19976;-80
2022/07/21 15:22:47;;;;;;;;;;;21.30;99.90;;;;;;4972771;28;19930;-82
2022/07/21 15:25:13;;;;;;;;;;;21.20;99.90;;;;;;4988651;28;19976;-78
2022/07/21 15:27:40;;;;;;;;;;;21.10;99.90;;;;;;4953278;28;19930;-82
2022/07/21 15:30:06;;;;;;;;;;;21.10;99.90;;;;;;4970895;28;20036;-79
2022/07/21 15:32:32;;;;;;;;;;;21.20;99.90;;;;;;4986678;28;19930;-77
2022/07/21 15:34:58;;;;;;;;;;;21.30;99.90;;;;;;4982835;28;20435;-80
2022/07/21 15:37:24;;;;;;;;;;;21.40;99.90;;;;;;4984196;28;20601;-79
2022/07/21 15:39:50;;;;;;;;;;;21.40;99.90;;;;;;4965603;28;19932;-80
2022/07/21 15:42:16;;;;;;;;;;;21.40;99.90;;;;;;4977512;28;19988;-80